Time;durP1;ratioP1;P1;durP2;ratioP2;P2;SDS_P1;SDS_P2;PMS_P1;PMS_P2;Temp;Humidity;BMP_temperature;BMP_pressure;BME280_temperature;BME280_humidity;BME280_pressure;Samples;Min_cycle;Max_cycle;Signal;HPM_P1;HPM_P2
2024/01/08 00:01:53;;;;;;;23.50;12.30;;;;;;;-9.94;81.26;101598.38;105630;1257;98830;-77
2024/01/08 00:04:38;;;;;;;24.70;10.60;;;;;;;-9.94;81.10;101602.19;105627;1260;98474;-77
2024/01/08 00:07:25;;;;;;;28.90;11.60;;;;;;;-9.95;81.16;101599.45;105734;1258;101382;-78
2024/01/08 00:10:11;;;;;;;25.60;11.70;;;;;;;-9.94;81.51;101601.51;105661;1257;99084;-77
2024/01/08 00:12:56;;;;;;;18.80;10.60;;;;;;;-9.94;81.06;101601.33;105472;1257;98663;-77
2024/01/08 00:15:41;;;;;;;27.90;12.50;;;;;;;-9.95;81.28;101600.48;105693;1257;97976;-77
2024/01/08 00:18:30;;;;;;;25.70;12.00;;;;;;;-9.94;81.28;101601.69;105612;1260;98499;-77
2024/01/08 00:21:15;;;;;;;20.80;10.10;;;;;;;-9.93;81.38;101602.00;105611;1260;101397;-77
2024/01/08 00:24:01;;;;;;;24.50;10.60;;;;;;;-9.94;81.45;101607.20;105749;1257;100366;-77
2024/01/08 00:26:46;;;;;;;28.30;12.60;;;;;;;-9.97;81.28;101610.03;105659;1260;98404;-76
2024/01/08 00:29:32;;;;;;;26.70;11.20;;;;;;;-9.98;81.53;101615.58;105554;1257;97955;-77
2024/01/08 00:32:17;;;;;;;25.20;12.30;;;;;;;-9.99;81.70;101619.73;105661;1260;99187;-77
2024/01/08 00:35:04;;;;;;;24.10;11.00;;;;;;;-10.00;81.85;101622.19;105628;1261;102620;-77
2024/01/08 00:37:49;;;;;;;33.00;13.50;;;;;;;-10.00;82.07;101628.41;105578;1263;100503;-77
2024/01/08 00:40:35;;;;;;;25.00;12.50;;;;;;;-10.03;81.86;101630.55;105763;1257;99266;-78
2024/01/08 00:43:20;;;;;;;23.30;9.60;;;;;;;-10.08;81.91;101634.81;105601;1258;97950;-77
2024/01/08 00:46:06;;;;;;;31.50;13.90;;;;;;;-10.15;81.86;101640.49;105600;1260;98423;-76
2024/01/08 00:48:52;;;;;;;28.90;13.50;;;;;;;-10.19;82.16;101643.00;108255;1257;102724;-78
2024/01/08 00:51:37;;;;;;;33.60;13.30;;;;;;;-10.20;82.49;101649.07;105736;1260;99183;-77
2024/01/08 00:54:22;;;;;;;28.10;13.10;;;;;;;-10.22;82.52;101646.88;105630;1257;99039;-78
2024/01/08 00:57:08;;;;;;;30.60;12.90;;;;;;;-10.24;82.52;101647.59;105600;1258;98728;-77
2024/01/08 00:59:54;;;;;;;30.50;13.40;;;;;;;-10.29;82.51;101650.98;105660;1260;99683;-77
2024/01/08 01:02:40;;;;;;;29.40;13.60;;;;;;;-10.33;82.56;101648.98;105621;1260;101552;-77
2024/01/08 01:05:26;;;;;;;29.00;13.00;;;;;;;-10.36;82.70;101653.70;105511;1257;99195;-77
2024/01/08 01:08:11;;;;;;;33.10;14.30;;;;;;;-10.40;82.74;101656.02;105590;1260;98493;-78
2024/01/08 01:10:57;;;;;;;31.20;14.00;;;;;;;-10.44;82.91;101658.00;105604;1259;99208;-77
2024/01/08 01:13:42;;;;;;;26.80;12.50;;;;;;;-10.46;82.71;101661.51;105680;1256;98486;-78
2024/01/08 01:16:29;;;;;;;28.40;12.80;;;;;;;-10.50;82.52;101660.89;105657;1260;102012;-78
2024/01/08 01:19:15;;;;;;;31.50;12.90;;;;;;;-10.52;83.00;101660.23;105626;1258;100594;-78
2024/01/08 01:22:00;;;;;;;27.60;13.70;;;;;;;-10.52;83.01;101663.02;105680;1260;98858;-77
2024/01/08 01:24:46;;;;;;;26.90;13.60;;;;;;;-10.52;83.12;101663.54;105593;1257;97869;-77
2024/01/08 01:27:31;;;;;;;31.40;14.00;;;;;;;-10.53;83.05;101666.12;105578;1260;98954;-77
2024/01/08 01:30:17;;;;;;;29.70;12.20;;;;;;;-10.56;82.95;101667.04;105604;1255;101531;-78
2024/01/08 01:33:03;;;;;;;26.70;13.50;;;;;;;-10.58;82.96;101670.34;105597;1256;99402;-78
2024/01/08 01:35:48;;;;;;;38.50;15.90;;;;;;;-10.61;83.22;101671.29;105545;1257;99045;-76
2024/01/08 01:38:35;;;;;;;31.90;13.70;;;;;;;-10.62;83.23;101675.09;105617;1258;97997;-77
2024/01/08 01:41:20;;;;;;;32.80;13.40;;;;;;;-10.64;83.22;101679.77;105569;1255;97864;-77
2024/01/08 01:44:06;;;;;;;24.10;11.90;;;;;;;-10.65;83.32;101678.43;105449;1257;101336;-77
2024/01/08 01:46:54;;;;;;;33.30;14.00;;;;;;;-10.66;83.31;101671.54;105390;1260;99181;-78
2024/01/08 01:49:40;;;;;;;27.60;12.70;;;;;;;-10.68;83.36;101676.25;105452;1261;97953;-78
2024/01/08 01:52:26;;;;;;;32.30;14.30;;;;;;;-10.70;83.26;101678.69;105216;1260;98049;-77
2024/01/08 01:55:13;;;;;;;30.00;12.50;;;;;;;-10.70;83.37;101681.27;105234;1261;98411;-78
2024/01/08 01:57:58;;;;;;;22.90;12.60;;;;;;;-10.68;83.33;101683.48;105253;1260;101890;-77
2024/01/08 02:00:44;;;;;;;29.70;12.60;;;;;;;-10.70;83.18;101681.80;105392;1257;99123;-77
2024/01/08 02:03:30;;;;;;;39.90;15.90;;;;;;;-10.74;83.10;101686.35;105534;1257;98851;-78
2024/01/08 02:06:18;;;;;;;25.50;14.20;;;;;;;-10.78;83.12;101685.21;105247;1260;97876;-77
2024/01/08 02:09:05;;;;;;;29.20;14.60;;;;;;;-10.81;83.19;101688.90;105219;1257;98607;-77
2024/01/08 02:11:50;;;;;;;34.10;15.50;;;;;;;-10.86;82.99;101686.89;105342;1258;101473;-78
2024/01/08 02:14:36;;;;;;;30.80;11.30;;;;;;;-10.88;82.93;101689.70;105660;1260;99770;-77
2024/01/08 02:17:21;;;;;;;24.30;11.90;;;;;;;-10.90;82.73;101700.61;105679;1256;99073;-78
2024/01/08 02:20:07;;;;;;;28.70;12.90;;;;;;;-10.89;83.09;101706.64;105610;1260;97977;-78
2024/01/08 02:22:53;;;;;;;32.10;14.60;;;;;;;-10.91;83.00;101706.33;105601;1258;98429;-77
2024/01/08 02:25:39;;;;;;;29.20;12.60;;;;;;;-10.92;82.85;101709.77;105627;1260;101415;-78
2024/01/08 02:28:25;;;;;;;35.60;13.50;;;;;;;-10.93;82.92;101715.50;105558;1257;99339;-77
2024/01/08 02:31:10;;;;;;;30.40;14.70;;;;;;;-10.94;83.00;101720.52;105601;1258;98092;-76
2024/01/08 02:33:56;;;;;;;23.40;12.50;;;;;;;-10.95;82.94;101730.02;105599;1260;97975;-78
2024/01/08 02:36:41;;;;;;;27.00;11.60;;;;;;;-10.97;82.94;101732.63;105620;1257;97868;-77
2024/01/08 02:39:27;;;;;;;30.50;13.20;;;;;;;-10.99;82.80;101732.33;105606;1260;102054;-77
2024/01/08 02:42:17;;;;;;;27.80;13.10;;;;;;;-10.99;82.70;101726.46;105645;1257;99426;-77
2024/01/08 02:45:03;;;;;;;29.40;13.80;;;;;;;-11.01;82.54;101726.83;105640;1260;97890;-78
2024/01/08 02:47:48;;;;;;;28.40;13.00;;;;;;;-11.03;82.76;101733.74;105557;1263;99099;-78
2024/01/08 02:50:33;;;;;;;24.50;11.30;;;;;;;-11.05;82.94;101741.55;105804;1257;97929;-79
2024/01/08 02:53:19;;;;;;;28.30;11.70;;;;;;;-11.08;82.93;101743.31;106082;1260;101417;-79
2024/01/08 02:56:05;;;;;;;30.60;14.10;;;;;;;-11.09;82.97;101745.39;105784;1256;99127;-77
2024/01/08 02:58:50;;;;;;;29.00;13.60;;;;;;;-11.08;83.19;101748.16;105537;1260;98055;-78
2024/01/08 03:01:37;;;;;;;26.40;11.60;;;;;;;-11.10;82.85;101756.27;105542;1263;97965;-78
2024/01/08 03:04:22;;;;;;;29.10;12.50;;;;;;;-11.12;82.76;101754.75;105665;1260;97946;-77
2024/01/08 03:07:09;;;;;;;24.00;11.10;;;;;;;-11.12;82.81;101754.91;105572;1257;101389;-78
2024/01/08 03:09:57;;;;;;;31.80;14.10;;;;;;;-11.13;82.77;101761.66;105652;1256;99306;-77
2024/01/08 03:12:42;;;;;;;29.10;12.40;;;;;;;-11.15;82.85;101766.87;105539;1260;98052;-77
2024/01/08 03:15:27;;;;;;;31.40;14.80;;;;;;;-11.15;82.78;101768.43;105657;1260;97888;-79
2024/01/08 03:18:13;;;;;;;32.70;14.20;;;;;;;-11.17;82.84;101769.48;105618;1260;101550;-78
2024/01/08 03:20:58;;;;;;;23.00;11.20;;;;;;;-11.16;83.01;101772.07;105523;1257;101416;-78
2024/01/08 03:23:44;;;;;;;26.70;12.10;;;;;;;-11.15;83.11;101777.91;105650;1257;99081;-77
2024/01/08 03:26:29;;;;;;;25.00;11.80;;;;;;;-11.13;83.12;101784.27;105503;1258;97965;-78
2024/01/08 03:29:14;;;;;;;29.80;14.90;;;;;;;-11.14;82.76;101788.95;105549;1256;175547;-77
2024/01/08 03:32:02;;;;;;;31.30;14.00;;;;;;;-11.18;82.92;101792.09;105607;1256;98637;-78
2024/01/08 03:34:48;;;;;;;24.70;11.60;;;;;;;-11.21;82.98;101795.06;105678;1258;101338;-78
2024/01/08 03:37:35;;;;;;;36.50;13.90;;;;;;;-11.25;82.80;101794.77;105613;1255;99111;-78
2024/01/08 03:40:21;;;;;;;28.20;11.80;;;;;;;-11.29;82.69;101797.41;105598;1257;99057;-77
2024/01/08 03:43:06;;;;;;;32.40;13.50;;;;;;;-11.33;82.83;101796.77;105554;1260;97966;-78
2024/01/08 03:45:52;;;;;;;26.30;12.10;;;;;;;-11.35;82.81;101796.46;105626;1257;98431;-78
2024/01/08 03:48:38;;;;;;;29.10;12.90;;;;;;;-11.36;82.74;101798.55;105681;1258;101347;-78
2024/01/08 03:51:23;;;;;;;33.70;13.70;;;;;;;-11.36;82.72;101805.10;105612;1261;99164;-78
2024/01/08 03:54:10;;;;;;;27.30;13.00;;;;;;;-11.36;82.79;101807.50;105595;1261;99060;-78
2024/01/08 03:56:55;;;;;;;31.40;13.10;;;;;;;-11.37;82.74;101809.27;105532;1257;98090;-78
2024/01/08 03:59:42;;;;;;;25.60;12.30;;;;;;;-11.37;82.62;101811.84;105559;1258;98487;-79
2024/01/08 04:02:27;;;;;;;28.10;12.00;;;;;;;-11.36;82.91;101815.80;105627;1261;101340;-78
2024/01/08 04:05:13;;;;;;;30.70;12.80;;;;;;;-11.37;83.07;101819.06;105693;1260;99699;-77
2024/01/08 04:07:59;;;;;;;31.60;14.40;;;;;;;-11.38;82.92;101821.84;105602;1260;99053;-78
2024/01/08 04:10:45;;;;;;;28.40;13.00;;;;;;;-11.42;82.94;101821.38;105618;1257;97953;-78
2024/01/08 04:13:31;;;;;;;33.90;14.60;;;;;;;-11.48;82.78;101824.20;105698;1260;97977;-77
2024/01/08 04:16:16;;;;;;;33.30;13.90;;;;;;;-11.50;82.90;101825.96;105632;1260;103152;-78
2024/01/08 04:19:02;;;;;;;27.60;14.40;;;;;;;-11.49;83.11;101829.92;105739;1260;99186;-78
2024/01/08 04:21:48;;;;;;;30.00;13.30;;;;;;;-11.50;82.95;101831.14;105633;1261;98842;-78
2024/01/08 04:24:33;;;;;;;29.40;14.40;;;;;;;-11.55;82.69;101835.34;105588;1260;98439;-78
2024/01/08 04:27:19;;;;;;;31.00;15.40;;;;;;;-11.58;82.75;101839.34;105586;1260;98391;-78
2024/01/08 04:30:05;;;;;;;25.80;11.50;;;;;;;-11.61;82.66;101841.77;105490;1260;101339;-77
2024/01/08 04:32:52;;;;;;;35.60;14.90;;;;;;;-11.63;82.71;101843.86;105659;1260;99793;-78
2024/01/08 04:35:37;;;;;;;31.60;13.40;;;;;;;-11.66;82.58;101847.02;105544;1261;97956;-78
2024/01/08 04:38:23;;;;;;;30.10;13.20;;;;;;;-11.70;82.52;101847.08;105583;1257;98563;-77
2024/01/08 04:41:08;;;;;;;26.90;12.90;;;;;;;-11.71;82.75;101851.23;105543;1257;98740;-77
2024/01/08 04:43:54;;;;;;;33.20;15.10;;;;;;;-11.72;82.79;101857.10;105566;1273;101497;-78
2024/01/08 04:46:44;;;;;;;25.40;12.70;;;;;;;-11.75;82.73;101862.82;105506;1261;99915;-78
2024/01/08 04:49:29;;;;;;;26.50;12.90;;;;;;;-11.76;82.52;101862.31;105422;1264;98682;-78
2024/01/08 04:52:15;;;;;;;27.30;13.10;;;;;;;-11.75;82.73;101863.51;105555;1257;99250;-77
2024/01/08 04:55:00;;;;;;;27.90;11.90;;;;;;;-11.76;82.56;101867.81;105584;1260;99135;-78
2024/01/08 04:57:48;;;;;;;31.10;14.20;;;;;;;-11.80;82.28;101866.66;105719;1255;101365;-77
2024/01/08 05:00:33;;;;;;;30.40;14.30;;;;;;;-11.86;82.17;101870.50;105783;1256;99182;-78
2024/01/08 05:03:18;;;;;;;27.40;11.80;;;;;;;-11.87;82.34;101868.63;105591;1260;98974;-78
2024/01/08 05:06:04;;;;;;;26.40;12.20;;;;;;;-11.87;82.61;101873.62;105536;1261;98280;-78
2024/01/08 05:08:49;;;;;;;27.80;13.50;;;;;;;-11.89;82.31;101878.27;105515;1257;98049;-77
2024/01/08 05:11:35;;;;;;;25.20;11.60;;;;;;;-11.91;82.22;101877.45;105595;1255;101408;-78
2024/01/08 05:14:20;;;;;;;35.30;15.20;;;;;;;-11.95;82.12;101883.52;105489;1261;100353;-78
2024/01/08 05:17:06;;;;;;;31.00;12.70;;;;;;;-11.98;82.44;101886.64;105487;1258;98741;-78
2024/01/08 05:19:52;;;;;;;30.50;14.10;;;;;;;-11.99;82.35;101888.89;105624;1263;97966;-78
2024/01/08 05:22:38;;;;;;;26.70;13.70;;;;;;;-11.99;82.38;101890.94;105544;1258;99510;-78
2024/01/08 05:25:24;;;;;;;25.90;12.10;;;;;;;-11.99;82.38;101895.78;105700;1260;103131;-77
2024/01/08 05:28:10;;;;;;;31.50;12.20;;;;;;;-12.03;82.23;101910.78;105695;1256;99785;-78
2024/01/08 05:30:56;;;;;;;32.00;14.20;;;;;;;-12.09;82.25;101910.50;105361;1260;97940;-77
2024/01/08 05:33:43;;;;;;;32.60;13.30;;;;;;;-12.12;82.38;101917.06;105569;1255;97979;-77
2024/01/08 05:36:29;;;;;;;33.50;13.20;;;;;;;-12.12;82.47;101920.34;105552;1261;97881;-77
2024/01/08 05:39:16;;;;;;;29.00;13.80;;;;;;;-12.13;82.26;101921.55;105619;1256;101384;-77
2024/01/08 05:42:02;;;;;;;26.80;13.40;;;;;;;-12.17;82.35;101923.65;105609;1258;101261;-78
2024/01/08 05:44:47;;;;;;;30.10;14.00;;;;;;;-12.20;82.11;101927.64;105586;1258;98623;-78
2024/01/08 05:47:36;;;;;;;28.50;13.60;;;;;;;-12.22;82.01;101924.02;105457;1258;98065;-78
2024/01/08 05:50:27;;;;;;;32.60;13.80;;;;;;;-12.24;82.33;101927.83;105625;1260;98004;-78
2024/01/08 05:53:13;;;;;;;22.00;10.70;;;;;;;-12.27;82.17;101933.02;105590;1255;101412;-78
2024/01/08 05:55:58;;;;;;;30.00;14.30;;;;;;;-12.32;81.84;101932.20;105586;1260;100448;-78
2024/01/08 05:58:44;;;;;;;28.80;13.60;;;;;;;-12.36;81.81;101933.10;105602;1260;98562;-79
2024/01/08 06:01:29;;;;;;;31.20;14.00;;;;;;;-12.36;82.05;101933.09;105610;1259;99075;-79
2024/01/08 06:04:15;;;;;;;24.10;12.10;;;;;;;-12.36;81.93;101934.12;105551;1257;99393;-78
2024/01/08 06:07:00;;;;;;;29.30;13.50;;;;;;;-12.39;81.90;101933.27;105525;1255;102105;-79
2024/01/08 06:09:46;;;;;;;29.90;14.00;;;;;;;-12.42;81.92;101941.23;105621;1260;99269;-79
2024/01/08 06:12:32;;;;;;;26.40;12.20;;;;;;;-12.47;81.76;101949.16;105581;1259;98570;-78
2024/01/08 06:15:17;;;;;;;27.80;13.60;;;;;;;-12.51;81.69;101951.95;105723;1256;97963;-77
2024/01/08 06:18:06;;;;;;;28.10;12.50;;;;;;;-12.51;81.86;101951.78;105743;1261;98404;-79
2024/01/08 06:20:52;;;;;;;29.10;13.40;;;;;;;-12.52;81.83;101957.98;105673;1261;102070;-79
2024/01/08 06:23:38;;;;;;;30.10;12.20;;;;;;;-12.54;81.68;101955.76;105587;1260;99238;-78
2024/01/08 06:26:25;;;;;;;29.30;14.00;;;;;;;-12.56;81.76;101960.92;105580;1261;99094;-79
2024/01/08 06:29:11;;;;;;;27.90;11.40;;;;;;;-12.57;81.63;101963.52;105593;1257;99250;-78
2024/01/08 06:31:57;;;;;;;34.00;14.60;;;;;;;-12.59;81.60;101964.39;105594;1261;98040;-78
2024/01/08 06:34:42;;;;;;;32.30;13.80;;;;;;;-12.65;81.42;101971.13;105619;1260;103079;-79
2024/01/08 06:37:28;;;;;;;31.60;13.50;;;;;;;-12.66;81.63;101974.05;106104;1256;100450;-79
2024/01/08 06:40:14;;;;;;;38.60;14.60;;;;;;;-12.67;81.69;101974.92;105625;1258;98536;-78
2024/01/08 06:42:59;;;;;;;27.10;13.20;;;;;;;-12.67;81.60;101979.05;105625;1260;97988;-79
2024/01/08 06:45:45;;;;;;;26.80;12.40;;;;;;;-12.68;81.64;101979.56;105784;1256;97897;-79
2024/01/08 06:48:31;;;;;;;30.70;12.60;;;;;;;-12.68;81.80;101980.25;105470;1257;101346;-78
2024/01/08 06:51:16;;;;;;;31.70;13.10;;;;;;;-12.67;81.74;101982.84;105603;1260;99312;-79
2024/01/08 06:54:01;;;;;;;30.70;13.60;;;;;;;-12.66;81.77;101979.39;105895;1259;99006;-79
2024/01/08 06:56:47;;;;;;;30.50;12.80;;;;;;;-12.62;82.06;101983.33;105853;1256;98407;-79
2024/01/08 06:59:32;;;;;;;32.00;12.70;;;;;;;-12.60;81.78;101982.29;105423;1255;98493;-78
2024/01/08 07:02:18;;;;;;;28.50;13.00;;;;;;;-12.60;81.49;101986.92;105589;1257;101398;-79
2024/01/08 07:05:04;;;;;;;30.10;13.10;;;;;;;-12.61;81.67;101992.10;105456;1261;100396;-78
2024/01/08 07:07:50;;;;;;;27.40;12.20;;;;;;;-12.63;81.74;101995.89;105619;1260;97974;-78
2024/01/08 07:10:36;;;;;;;29.30;12.50;;;;;;;-12.65;81.59;101997.10;105562;1262;97959;-78
2024/01/08 07:13:21;;;;;;;34.20;13.60;;;;;;;-12.64;81.91;102002.08;105596;1255;97774;-78
2024/01/08 07:16:07;;;;;;;35.30;13.20;;;;;;;-12.61;81.89;102004.64;105587;1261;102376;-78
2024/01/08 07:18:52;;;;;;;26.80;12.90;;;;;;;-12.59;81.65;102011.69;105828;1260;99100;-78
2024/01/08 07:21:38;;;;;;;31.20;13.40;;;;;;;-12.61;81.58;102023.05;105715;1260;97978;-78
2024/01/08 07:24:24;;;;;;;28.30;12.30;;;;;;;-12.61;81.75;102024.08;105491;1259;97971;-79
2024/01/08 07:27:09;;;;;;;24.80;11.80;;;;;;;-12.58;81.82;102024.23;105628;1279;98022;-79
2024/01/08 07:29:56;;;;;;;29.00;12.00;;;;;;;-12.55;81.89;102026.29;105621;1260;101394;-78
2024/01/08 07:32:42;;;;;;;28.20;11.30;;;;;;;-12.54;81.80;102025.27;105608;1260;99250;-79
2024/01/08 07:35:27;;;;;;;29.30;13.40;;;;;;;-12.51;81.97;102028.34;105659;1258;98439;-78
2024/01/08 07:38:13;;;;;;;22.50;10.80;;;;;;;-12.46;81.92;102031.41;105668;1260;98542;-79
2024/01/08 07:41:01;;;;;;;28.30;13.10;;;;;;;-12.44;81.54;102042.06;105787;1255;98466;-79
2024/01/08 07:43:47;;;;;;;28.20;11.80;;;;;;;-12.43;81.31;102046.89;106379;1255;102069;-79
2024/01/08 07:46:32;;;;;;;32.40;12.90;;;;;;;-12.41;81.55;102053.93;105621;1256;100310;-77
2024/01/08 07:49:17;;;;;;;29.30;11.60;;;;;;;-12.40;81.70;102058.55;105440;1260;98605;-78
2024/01/08 07:52:03;;;;;;;31.50;13.70;;;;;;;-12.37;81.68;102061.98;105396;1258;97940;-78
2024/01/08 07:54:49;;;;;;;30.70;14.50;;;;;;;-12.33;81.89;102063.88;105766;1260;98399;-79
2024/01/08 07:57:35;;;;;;;29.70;13.00;;;;;;;-12.28;81.92;102065.55;105759;1260;101461;-78
2024/01/08 08:00:22;;;;;;;27.80;12.30;;;;;;;-12.22;82.00;102068.79;105510;1261;99100;-78
2024/01/08 08:03:08;;;;;;;30.80;11.70;;;;;;;-12.14;82.00;102072.18;105337;1258;97975;-78
2024/01/08 08:05:54;;;;;;;28.20;12.50;;;;;;;-12.10;81.73;102077.16;105514;1258;98573;-78
2024/01/08 08:08:39;;;;;;;34.70;12.40;;;;;;;-12.06;81.63;102086.44;105475;1261;97882;-78
2024/01/08 08:11:27;;;;;;;25.50;11.60;;;;;;;-12.04;81.35;102091.75;105486;1260;101311;-78
2024/01/08 08:14:12;;;;;;;23.90;11.60;;;;;;;-12.02;81.40;102097.77;105539;1256;99126;-78
2024/01/08 08:16:58;;;;;;;27.70;12.60;;;;;;;-11.99;81.27;102105.34;105627;1260;98049;-79
2024/01/08 08:19:44;;;;;;;28.50;13.80;;;;;;;-11.96;81.22;102108.93;105717;1257;98064;-78
2024/01/08 08:22:29;;;;;;;25.90;13.10;;;;;;;-11.94;81.25;102112.02;105546;1261;98578;-78
2024/01/08 08:25:16;;;;;;;27.70;12.10;;;;;;;-11.94;80.97;102113.58;105413;1257;102624;-78
2024/01/08 08:28:02;;;;;;;28.90;12.30;;;;;;;-11.91;81.03;102114.25;105474;1260;99784;-80
2024/01/08 08:30:47;;;;;;;28.60;12.20;;;;;;;-11.89;81.06;102117.84;105536;1261;97981;-80
2024/01/08 08:33:32;;;;;;;28.90;11.50;;;;;;;-11.84;81.02;102122.47;105634;1264;97953;-79
2024/01/08 08:36:18;;;;;;;27.30;12.40;;;;;;;-11.80;81.12;102126.58;105735;1258;97850;-78
2024/01/08 08:39:03;;;;;;;24.20;12.50;;;;;;;-11.75;81.11;102126.89;105720;1260;101397;-78
2024/01/08 08:41:49;;;;;;;27.00;12.60;;;;;;;-11.72;80.77;102126.02;105697;1258;99877;-78
2024/01/08 08:44:35;;;;;;;27.80;12.00;;;;;;;-11.68;80.98;102132.36;105568;1260;98333;-78
2024/01/08 08:47:21;;;;;;;29.70;13.10;;;;;;;-11.65;80.76;102136.10;105406;1258;98030;-78
2024/01/08 08:50:07;;;;;;;26.80;11.60;;;;;;;-11.62;80.75;102139.86;105597;1261;98640;-78
2024/01/08 08:52:53;;;;;;;29.60;12.00;;;;;;;-11.61;80.48;102142.28;105569;1261;101585;-78
2024/01/08 08:55:38;;;;;;;33.40;12.10;;;;;;;-11.64;79.98;102145.04;105716;1260;100494;-78
2024/01/08 08:58:24;;;;;;;28.20;12.00;;;;;;;-11.65;80.20;102154.00;105653;1258;98035;-78
2024/01/08 09:01:11;;;;;;;27.90;13.30;;;;;;;-11.64;80.23;102167.96;105474;1258;98516;-78
2024/01/08 09:03:57;;;;;;;24.30;9.90;;;;;;;-11.67;80.04;102164.55;105594;1260;97873;-79
2024/01/08 09:06:42;;;;;;;27.50;12.30;;;;;;;-11.72;79.82;102166.66;105581;1261;102641;-78
2024/01/08 09:09:28;;;;;;;22.60;11.50;;;;;;;-11.72;80.00;102168.04;105588;1258;99193;-78
2024/01/08 09:12:13;;;;;;;24.50;11.00;;;;;;;-11.69;80.18;102174.73;106012;1257;97987;-78
2024/01/08 09:15:00;;;;;;;29.30;13.20;;;;;;;-11.68;79.97;102175.94;105492;1260;97876;-78
2024/01/08 09:17:45;;;;;;;36.60;14.80;;;;;;;-11.66;79.86;102175.05;105684;1259;97770;-78
2024/01/08 09:20:32;;;;;;;28.40;12.70;;;;;;;-11.61;80.28;102177.24;105863;1259;102314;-78
2024/01/08 09:23:18;;;;;;;29.80;12.90;;;;;;;-11.55;80.46;102180.30;105676;1261;99164;-77
2024/01/08 09:26:04;;;;;;;26.20;12.90;;;;;;;-11.51;80.29;102181.48;105606;1261;97978;-78
2024/01/08 09:28:49;;;;;;;27.80;12.00;;;;;;;-11.46;80.13;102186.27;105947;1261;97761;-83
2024/01/08 09:31:35;;;;;;;28.50;13.00;;;;;;;-11.43;80.12;102187.81;106289;1256;98061;-82
2024/01/08 09:34:20;;;;;;;31.50;13.70;;;;;;;-11.43;79.95;102199.52;106538;1258;101421;-82
2024/01/08 09:37:05;;;;;;;30.50;14.40;;;;;;;-11.43;79.75;102195.57;106209;1258;99176;-83
2024/01/08 09:39:52;;;;;;;31.60;14.30;;;;;;;-11.42;79.83;102192.99;106178;1262;97978;-82
2024/01/08 09:42:39;;;;;;;33.00;13.30;;;;;;;-11.45;79.63;102195.58;106109;1258;97990;-82
2024/01/08 09:45:28;;;;;;;31.90;13.80;;;;;;;-11.45;79.75;102191.62;106145;1263;97972;-83
2024/01/08 09:48:13;;;;;;;25.30;12.40;;;;;;;-11.44;79.94;102190.23;106192;1258;103025;-84
2024/01/08 09:51:00;;;;;;;31.40;13.00;;;;;;;-11.39;80.20;102193.83;106494;1255;99252;-83
2024/01/08 09:53:46;;;;;;;33.00;13.60;;;;;;;-11.34;80.10;102200.86;106265;1256;97939;-81
2024/01/08 09:56:32;;;;;;;33.60;13.10;;;;;;;-11.31;79.87;102198.25;106553;1258;98657;-82
2024/01/08 09:59:17;;;;;;;27.00;11.20;;;;;;;-11.27;80.02;102193.39;106493;1256;97942;-84
2024/01/08 10:02:03;;;;;;;28.30;12.70;;;;;;;-11.19;79.96;102192.64;106403;1261;101439;-83
2024/01/08 10:04:49;;;;;;;26.80;12.70;;;;;;;-11.14;79.99;102193.63;106342;1258;99171;-83
2024/01/08 10:07:35;;;;;;;29.60;13.80;;;;;;;-11.11;79.60;102194.81;106224;1255;98333;-83
2024/01/08 10:10:22;;;;;;;26.40;12.80;;;;;;;-11.10;79.48;102188.77;106333;1260;97888;-83
2024/01/08 10:13:09;;;;;;;28.90;13.10;;;;;;;-11.07;79.59;102186.85;106423;1256;97989;-83
2024/01/08 10:15:56;;;;;;;25.80;12.90;;;;;;;-10.99;80.00;102177.48;106356;1258;102278;-84
2024/01/08 10:18:47;;;;;;;26.10;13.20;;;;;;;-10.90;80.02;102178.26;106528;1261;99837;-83
2024/01/08 10:21:32;;;;;;;26.70;12.10;;;;;;;-10.86;79.74;102183.38;106414;1258;98007;-81
2024/01/08 10:24:24;;;;;;;30.70;12.30;;;;;;;-10.81;79.71;102191.64;106398;1256;98529;-84
2024/01/08 10:27:11;;;;;;;29.70;12.80;;;;;;;-10.78;79.37;102186.96;106591;1259;97836;-83
2024/01/08 10:29:56;;;;;;;29.90;12.50;;;;;;;-10.75;79.17;102187.94;106435;1257;102158;-83
2024/01/08 10:32:43;;;;;;;27.60;12.90;;;;;;;-10.69;79.32;102189.44;106423;1261;99164;-83
2024/01/08 10:35:29;;;;;;;27.70;12.00;;;;;;;-10.65;79.23;102191.83;106558;1256;98055;-84
2024/01/08 10:38:15;;;;;;;34.40;15.70;;;;;;;-10.62;79.31;102200.24;106386;1262;97876;-83
2024/01/08 10:41:01;;;;;;;35.50;14.00;;;;;;;-10.60;79.41;102194.53;106478;1257;97873;-83
2024/01/08 10:43:47;;;;;;;26.90;13.10;;;;;;;-10.56;79.39;102193.79;106496;1256;101336;-83
2024/01/08 10:46:45;;;;;;;34.90;14.50;;;;;;;-10.52;79.51;102194.63;106328;1258;100560;-83
2024/01/08 10:49:38;;;;;;;27.20;11.70;;;;;;;-10.49;79.10;102195.45;106524;1256;98864;-83
2024/01/08 10:52:29;;;;;;;27.80;13.20;;;;;;;-10.43;79.29;102199.20;106527;1258;99027;-83
2024/01/08 10:55:15;;;;;;;26.80;11.90;;;;;;;-10.35;79.31;102200.15;106352;1264;97971;-83
2024/01/08 10:58:05;;;;;;;24.40;12.40;;;;;;;-10.29;79.18;102201.63;106381;1258;102523;-83
2024/01/08 11:00:52;;;;;;;25.90;13.00;;;;;;;-10.26;78.92;102199.88;106314;1264;99138;-83
2024/01/08 11:03:38;;;;;;;25.80;11.80;;;;;;;-10.22;79.04;102197.92;106294;1256;97855;-82
2024/01/08 11:06:24;;;;;;;31.10;14.00;;;;;;;-10.21;78.57;102202.05;106422;1261;97991;-83
2024/01/08 11:09:29;;;;;;;32.60;13.80;;;;;;;-10.20;78.49;102197.91;106471;1260;97888;-82
2024/01/08 11:12:16;;;;;;;27.20;12.70;;;;;;;-10.18;78.55;102196.33;106454;1256;102119;-83
2024/01/08 11:15:04;;;;;;;25.80;12.40;;;;;;;-10.17;78.34;102196.48;106601;1257;99882;-82
2024/01/08 11:17:51;;;;;;;31.50;13.90;;;;;;;-10.18;78.19;102202.20;106598;1261;97876;-84
2024/01/08 11:20:46;;;;;;;30.70;13.90;;;;;;;-10.17;78.34;102200.63;106395;1263;97949;-83
2024/01/08 11:23:39;;;;;;;24.00;12.80;;;;;;;-10.13;78.55;102195.23;106517;1255;98465;-83
2024/01/08 11:26:26;;;;;;;29.90;13.60;;;;;;;-10.10;78.26;102189.48;106509;1258;102098;-82
2024/01/08 11:29:12;;;;;;;28.10;12.00;;;;;;;-10.10;78.24;102191.70;106647;1259;99074;-84
2024/01/08 11:32:23;;;;;;;29.10;13.40;;;;;;;-10.08;78.31;102190.98;106311;1258;97913;-83
2024/01/08 11:35:13;;;;;;;23.80;10.90;;;;;;;-10.04;78.07;102195.43;106477;1260;97868;-82
2024/01/08 11:38:26;;;;;;;30.50;13.30;;;;;;;-10.01;78.00;102195.73;106534;1257;95866;-84
2024/01/08 11:41:13;;;;;;;28.00;13.70;;;;;;;-10.00;78.27;102193.48;106495;1259;102684;-82
2024/01/08 11:44:01;;;;;;;28.70;12.10;;;;;;;-9.95;78.28;102195.83;106473;1258;99188;-83
2024/01/08 11:46:47;;;;;;;31.90;15.30;;;;;;;-9.91;77.98;102193.02;106508;1257;97921;-83
2024/01/08 11:49:33;;;;;;;26.30;12.20;;;;;;;-9.87;78.09;102191.41;106500;1258;97965;-81
2024/01/08 11:52:20;;;;;;;30.60;13.20;;;;;;;-9.81;78.26;102198.77;106512;1260;97947;-82
2024/01/08 11:55:07;;;;;;;28.70;13.60;;;;;;;-9.78;77.84;102197.35;106535;1259;101301;-83
2024/01/08 11:57:53;;;;;;;30.50;13.50;;;;;;;-9.72;77.87;102196.23;106595;1258;100467;-82
2024/01/08 12:00:39;;;;;;;30.50;13.90;;;;;;;-9.68;77.82;102195.48;106984;1261;99054;-82
2024/01/08 12:03:25;;;;;;;26.80;13.50;;;;;;;-9.65;77.77;102200.80;106715;1264;97989;-83
2024/01/08 12:06:12;;;;;;;30.30;12.70;;;;;;;-9.60;78.07;102199.00;106520;1258;97742;-81
2024/01/08 12:08:57;;;;;;;26.70;13.20;;;;;;;-9.55;77.77;102200.84;106386;1261;101336;-82
2024/01/08 12:11:43;;;;;;;32.00;14.80;;;;;;;-9.55;77.36;102194.08;106587;1260;99217;-82
2024/01/08 12:14:31;;;;;;;27.90;14.00;;;;;;;-9.53;77.64;102199.07;106441;1262;99103;-85
2024/01/08 12:17:18;;;;;;;35.20;13.90;;;;;;;-9.51;77.10;102202.84;106527;1262;97992;-82